createdAt,value
2022-12-14T00:00:20.627Z,0.00
2022-12-14T00:01:20.564Z,0.00
2022-12-14T00:02:20.460Z,0.00
2022-12-14T00:03:20.520Z,0.00
2022-12-14T00:04:20.322Z,0.00
2022-12-14T00:05:20.274Z,0.00
2022-12-14T00:06:20.225Z,0.00
2022-12-14T00:07:20.166Z,0.00
2022-12-14T00:08:20.054Z,0.00
2022-12-14T00:09:20.004Z,0.00
2022-12-14T00:10:19.999Z,0.00
2022-12-14T00:11:19.942Z,0.00
2022-12-14T00:12:19.773Z,0.00
2022-12-14T00:13:20.014Z,0.00
2022-12-14T00:14:19.662Z,0.00
2022-12-14T00:15:19.630Z,0.00
2022-12-14T00:16:19.578Z,0.00
2022-12-14T00:17:19.505Z,0.00
2022-12-14T00:18:22.632Z,0.00
2022-12-14T00:19:19.366Z,0.00
2022-12-14T00:20:19.283Z,0.00
2022-12-14T00:21:19.187Z,0.00
2022-12-14T00:22:19.177Z,0.00
2022-12-14T00:23:19.082Z,0.00
2022-12-14T00:24:19.020Z,0.00
2022-12-14T00:25:18.970Z,0.00
2022-12-14T00:26:18.887Z,0.00
2022-12-14T00:27:18.860Z,0.00
2022-12-14T00:28:18.784Z,0.00
2022-12-14T00:29:18.719Z,0.00
2022-12-14T00:30:18.659Z,0.00
2022-12-14T00:31:39.592Z,0.00
2022-12-14T00:32:18.524Z,0.00
2022-12-14T00:33:18.417Z,0.00
2022-12-14T00:34:18.371Z,0.00
2022-12-14T00:35:18.275Z,0.00
2022-12-14T00:36:18.215Z,0.00
2022-12-14T00:37:18.187Z,0.00
2022-12-14T00:38:18.113Z,0.00
2022-12-14T00:39:18.071Z,0.00
2022-12-14T00:40:17.955Z,0.00
2022-12-14T00:41:17.938Z,0.00
2022-12-14T00:42:17.821Z,0.00
2022-12-14T00:43:17.798Z,0.00
2022-12-14T00:44:17.721Z,0.00
2022-12-14T00:45:17.628Z,0.00
2022-12-14T00:46:17.596Z,0.00
2022-12-14T00:47:17.523Z,0.00
2022-12-14T00:48:17.465Z,0.00
2022-12-14T00:49:38.365Z,0.00
2022-12-14T00:50:17.336Z,0.00
2022-12-14T00:51:17.291Z,0.00
2022-12-14T00:52:17.202Z,0.00
2022-12-14T00:53:17.175Z,0.00
2022-12-14T00:54:17.052Z,0.00
2022-12-14T00:55:17.014Z,0.00
2022-12-14T00:56:16.967Z,0.00
2022-12-14T00:57:16.897Z,0.00
2022-12-14T00:58:16.808Z,0.00
2022-12-14T00:59:16.751Z,0.00
2022-12-14T01:00:16.658Z,0.00
2022-12-14T01:01:16.694Z,0.00
2022-12-14T01:02:16.636Z,0.00
2022-12-14T01:03:16.553Z,0.00
2022-12-14T01:04:16.524Z,0.00
2022-12-14T01:05:16.390Z,0.00
2022-12-14T01:06:16.275Z,0.00
2022-12-14T01:07:16.215Z,0.00
2022-12-14T01:08:16.156Z,0.00
2022-12-14T01:09:16.131Z,0.00
2022-12-14T01:10:16.069Z,0.00
2022-12-14T01:11:15.992Z,0.00
2022-12-14T01:12:15.904Z,0.00
2022-12-14T01:13:15.890Z,0.00
2022-12-14T01:14:15.787Z,0.00
2022-12-14T01:15:15.691Z,0.00
2022-12-14T01:16:15.720Z,0.00
2022-12-14T01:17:15.572Z,0.00
2022-12-14T01:18:15.541Z,0.00
2022-12-14T01:19:15.568Z,0.00
2022-12-14T01:20:15.370Z,0.00
2022-12-14T01:21:15.328Z,0.00
2022-12-14T01:22:15.243Z,0.00
2022-12-14T01:23:15.220Z,0.00
2022-12-14T01:24:15.147Z,0.00
2022-12-14T01:25:36.042Z,0.00
2022-12-14T01:26:15.002Z,0.00
2022-12-14T01:27:14.931Z,0.00
2022-12-14T01:28:14.871Z,0.00
2022-12-14T01:29:14.833Z,0.00
2022-12-14T01:30:14.708Z,0.00
2022-12-14T01:31:14.765Z,0.00
2022-12-14T01:32:14.603Z,0.00
2022-12-14T01:33:14.576Z,0.00
2022-12-14T01:34:14.487Z,0.00
2022-12-14T01:35:14.398Z,0.00
2022-12-14T01:36:14.367Z,0.00
2022-12-14T01:37:14.303Z,0.00
2022-12-14T01:38:14.242Z,0.00
2022-12-14T01:39:14.146Z,0.00
2022-12-14T01:40:14.093Z,0.00
2022-12-14T01:41:14.025Z,0.00
2022-12-14T01:42:13.975Z,0.00
2022-12-14T01:43:34.853Z,0.00
2022-12-14T01:44:13.842Z,0.00
2022-12-14T01:45:13.730Z,0.00
2022-12-14T01:46:13.783Z,0.00
2022-12-14T01:47:13.629Z,0.00
2022-12-14T01:48:13.538Z,0.00
2022-12-14T01:49:13.538Z,0.00
2022-12-14T01:50:13.437Z,0.00
2022-12-14T01:51:13.365Z,0.00
2022-12-14T01:52:13.313Z,0.00
2022-12-14T01:53:13.222Z,0.00
2022-12-14T01:54:13.187Z,0.00
2022-12-14T01:55:13.389Z,0.00
2022-12-14T01:56:13.016Z,0.00
2022-12-14T01:57:12.985Z,0.00
2022-12-14T01:58:12.949Z,0.00
2022-12-14T01:59:12.880Z,0.00
2022-12-14T02:00:12.810Z,0.00
2022-12-14T02:02:22.090Z,0.00
2022-12-14T02:03:22.986Z,0.00
2022-12-14T02:04:22.842Z,0.00
2022-12-14T02:05:22.770Z,0.00
2022-12-14T02:06:22.682Z,0.00
2022-12-14T02:07:22.668Z,0.00
2022-12-14T02:08:22.574Z,0.00
2022-12-14T02:09:22.515Z,0.00
2022-12-14T02:10:22.415Z,0.00
2022-12-14T02:11:22.328Z,0.00
2022-12-14T02:12:22.287Z,0.00
2022-12-14T02:13:22.220Z,0.00
2022-12-14T02:14:22.136Z,0.00
2022-12-14T02:15:22.066Z,0.00
2022-12-14T02:16:22.152Z,0.00
2022-12-14T02:17:21.963Z,0.00
2022-12-14T02:18:21.928Z,0.00
2022-12-14T02:20:31.033Z,0.00
2022-12-14T02:21:32.005Z,0.00
2022-12-14T02:22:31.927Z,0.00
2022-12-14T02:23:32.513Z,0.00
2022-12-14T02:24:31.780Z,0.00
2022-12-14T02:25:31.772Z,0.00
2022-12-14T02:26:31.678Z,0.00
2022-12-14T02:27:31.572Z,0.00
2022-12-14T02:28:31.565Z,0.00
2022-12-14T02:29:31.500Z,0.00
2022-12-14T02:30:31.409Z,0.00
2022-12-14T02:31:31.439Z,0.00
2022-12-14T02:32:31.285Z,0.00
2022-12-14T02:33:31.317Z,0.00
2022-12-14T02:34:31.152Z,0.00
2022-12-14T02:35:31.093Z,0.00
2022-12-14T02:36:30.998Z,0.00
2022-12-14T02:38:40.187Z,0.00
2022-12-14T02:39:41.123Z,0.00
2022-12-14T02:40:41.047Z,0.00
2022-12-14T02:41:40.987Z,0.00
2022-12-14T02:42:40.920Z,0.00
2022-12-14T02:43:40.868Z,0.00
2022-12-14T02:44:40.802Z,0.00
2022-12-14T02:45:40.726Z,0.00
2022-12-14T02:46:40.720Z,0.00
2022-12-14T02:47:40.584Z,0.00
2022-12-14T02:48:40.532Z,0.00
2022-12-14T02:49:40.480Z,0.00
2022-12-14T02:50:40.431Z,0.00
2022-12-14T02:51:40.314Z,0.00
2022-12-14T02:52:40.322Z,0.00
2022-12-14T02:53:40.263Z,0.00
2022-12-14T02:54:40.141Z,0.00
2022-12-14T02:55:40.106Z,0.00
2022-12-14T02:56:39.995Z,0.00
2022-12-14T02:57:39.954Z,0.00
2022-12-14T02:58:39.875Z,0.00
2022-12-14T02:59:39.787Z,0.00
2022-12-14T03:00:39.777Z,0.00
2022-12-14T03:01:39.931Z,0.00
2022-12-14T03:02:39.752Z,0.00
2022-12-14T03:03:39.552Z,0.00
2022-12-14T03:04:39.493Z,0.00
2022-12-14T03:05:39.452Z,0.00
2022-12-14T03:06:39.362Z,0.00
2022-12-14T03:07:39.346Z,0.00
2022-12-14T03:08:39.258Z,0.00
2022-12-14T03:09:39.174Z,0.00
2022-12-14T03:10:39.096Z,0.00
2022-12-14T03:11:39.014Z,0.00
2022-12-14T03:12:38.981Z,0.00
2022-12-14T03:13:38.942Z,0.00
2022-12-14T03:14:38.808Z,0.00
2022-12-14T03:15:38.772Z,0.00
2022-12-14T03:16:38.805Z,0.00
2022-12-14T03:17:38.674Z,0.00
2022-12-14T03:18:38.645Z,0.00
2022-12-14T03:20:03.481Z,0.00
2022-12-14T03:20:38.448Z,0.00
2022-12-14T03:21:38.414Z,0.00
2022-12-14T03:22:38.322Z,0.00
2022-12-14T03:23:38.253Z,0.00
2022-12-14T03:24:38.219Z,0.00
2022-12-14T03:25:38.435Z,0.00
2022-12-14T03:26:41.640Z,0.00
2022-12-14T03:27:38.013Z,0.00
2022-12-14T03:28:37.915Z,0.00
2022-12-14T03:29:37.873Z,0.00
2022-12-14T03:30:59.530Z,0.00
2022-12-14T03:31:58.820Z,0.00
2022-12-14T03:32:37.697Z,0.00
2022-12-14T03:33:37.580Z,0.00
2022-12-14T03:34:37.567Z,0.00
2022-12-14T03:35:37.489Z,0.00
2022-12-14T03:36:37.438Z,0.00
2022-12-14T03:37:37.340Z,0.00
2022-12-14T03:38:37.261Z,0.00
2022-12-14T03:39:37.226Z,0.00
2022-12-14T03:40:37.162Z,0.00
2022-12-14T03:41:37.102Z,0.00
2022-12-14T03:42:37.019Z,0.00
2022-12-14T03:43:36.973Z,0.00
2022-12-14T03:44:43.308Z,0.00
2022-12-14T03:45:36.841Z,0.00
2022-12-14T03:46:36.761Z,0.00
2022-12-14T03:47:36.699Z,0.00
2022-12-14T03:48:36.643Z,0.00
2022-12-14T03:50:45.828Z,0.00
2022-12-14T03:51:46.750Z,0.00
2022-12-14T03:52:46.709Z,0.00
2022-12-14T03:53:46.596Z,0.00
2022-12-14T03:54:46.548Z,0.00
2022-12-14T03:56:55.758Z,0.00
2022-12-14T03:57:56.699Z,0.00
2022-12-14T03:58:57.402Z,0.00
2022-12-14T03:59:56.530Z,0.00
2022-12-14T04:00:56.521Z,0.00
2022-12-14T04:01:56.661Z,0.00
2022-12-14T04:02:56.397Z,0.00
2022-12-14T04:03:56.281Z,0.00
2022-12-14T04:04:56.233Z,0.00
2022-12-14T04:05:56.161Z,0.00
2022-12-14T04:06:56.117Z,0.00
2022-12-14T04:08:17.052Z,0.00
2022-12-14T04:08:55.993Z,0.00
2022-12-14T04:09:55.913Z,0.00
2022-12-14T04:10:55.857Z,0.00
2022-12-14T04:11:55.762Z,0.00
2022-12-14T04:12:55.711Z,0.00
2022-12-14T04:13:55.676Z,0.00
2022-12-14T04:14:55.626Z,0.00
2022-12-14T04:15:55.526Z,0.00
2022-12-14T04:16:55.480Z,0.00
2022-12-14T04:17:55.385Z,0.00
2022-12-14T04:18:59.587Z,0.00
2022-12-14T04:19:55.296Z,0.00
2022-12-14T04:20:55.216Z,0.00
2022-12-14T04:21:55.135Z,0.00
2022-12-14T04:22:55.109Z,0.00
2022-12-14T04:23:55.036Z,0.00
2022-12-14T04:24:54.928Z,0.00
2022-12-14T04:27:04.097Z,0.00
2022-12-14T04:28:05.025Z,0.00
2022-12-14T04:29:04.962Z,0.00
2022-12-14T04:30:04.876Z,0.00
2022-12-14T04:31:04.861Z,0.00
2022-12-14T04:32:04.813Z,0.00
2022-12-14T04:33:04.699Z,0.00
2022-12-14T04:34:04.633Z,0.00
2022-12-14T04:35:04.606Z,0.00
2022-12-14T04:36:04.515Z,0.00
2022-12-14T04:37:04.437Z,0.00
2022-12-14T04:38:04.396Z,0.00
2022-12-14T04:39:04.370Z,0.00
2022-12-14T04:40:04.247Z,0.00
2022-12-14T04:41:04.180Z,0.00
2022-12-14T04:42:04.117Z,0.00
2022-12-14T04:43:04.112Z,0.00
2022-12-14T04:45:43.173Z,0.00
2022-12-14T04:46:43.969Z,0.00
2022-12-14T04:47:43.883Z,0.00
2022-12-14T04:48:43.808Z,0.00
2022-12-14T04:49:43.759Z,0.00
2022-12-14T04:50:43.666Z,0.00
2022-12-14T04:51:43.618Z,0.00
2022-12-14T04:52:43.580Z,0.00
2022-12-14T04:53:43.558Z,0.00
2022-12-14T04:54:43.469Z,0.00
2022-12-14T04:55:43.378Z,0.00
2022-12-14T04:56:43.355Z,0.00
2022-12-14T04:57:43.271Z,0.00
2022-12-14T04:58:43.160Z,0.00
2022-12-14T04:59:43.107Z,0.00
2022-12-14T05:00:43.038Z,0.00
2022-12-14T05:04:01.374Z,0.00
2022-12-14T05:05:02.865Z,0.00
2022-12-14T05:06:02.352Z,0.00
2022-12-14T05:07:02.179Z,0.00
2022-12-14T05:08:23.118Z,0.00
2022-12-14T05:09:02.138Z,0.00
2022-12-14T05:10:02.040Z,0.00
2022-12-14T05:11:22.110Z,0.00
2022-12-14T05:12:01.903Z,0.00
2022-12-14T05:13:01.797Z,0.00
2022-12-14T05:14:01.734Z,0.00
2022-12-14T05:15:01.690Z,0.00
2022-12-14T05:16:01.653Z,0.00
2022-12-14T05:17:07.940Z,0.00
2022-12-14T05:18:01.519Z,0.00
2022-12-14T05:19:01.465Z,0.00
2022-12-14T05:20:01.364Z,0.00
2022-12-14T05:22:40.320Z,0.00
2022-12-14T05:23:41.294Z,0.00
2022-12-14T05:24:41.218Z,0.00
2022-12-14T05:25:41.095Z,0.00
2022-12-14T05:26:41.089Z,0.00
2022-12-14T05:27:40.963Z,0.00
2022-12-14T05:28:44.661Z,0.00
2022-12-14T05:29:40.862Z,0.00
2022-12-14T05:30:40.870Z,0.00
2022-12-14T05:31:40.734Z,0.00
2022-12-14T05:32:40.686Z,0.00
2022-12-14T05:33:40.605Z,0.00
2022-12-14T05:34:40.536Z,0.00
2022-12-14T05:35:40.471Z,0.00
2022-12-14T05:36:40.380Z,0.00
2022-12-14T05:37:40.374Z,0.00
2022-12-14T05:38:40.279Z,0.00
2022-12-14T05:39:40.179Z,0.00
2022-12-14T05:40:40.143Z,0.00
2022-12-14T05:41:40.050Z,0.00
2022-12-14T05:42:44.770Z,0.00
2022-12-14T05:43:39.937Z,0.00
2022-12-14T05:44:39.912Z,0.00
2022-12-14T05:45:39.972Z,0.00
2022-12-14T05:46:39.727Z,0.00
2022-12-14T05:47:39.692Z,0.00
2022-12-14T05:48:39.696Z,0.00
2022-12-14T05:49:39.587Z,0.00
2022-12-14T05:50:39.531Z,0.00
2022-12-14T05:51:39.404Z,0.00
2022-12-14T05:52:39.632Z,0.00
2022-12-14T05:53:39.304Z,0.00
2022-12-14T05:54:39.263Z,0.00
2022-12-14T05:55:39.175Z,0.00
2022-12-14T05:57:00.119Z,0.00
2022-12-14T05:57:39.055Z,0.00
2022-12-14T05:58:38.955Z,0.00
2022-12-14T05:59:38.907Z,0.00
2022-12-14T06:00:38.818Z,0.00
2022-12-14T06:01:38.775Z,0.00
2022-12-14T06:02:38.753Z,0.00
2022-12-14T06:03:38.633Z,0.00
2022-12-14T06:04:38.660Z,0.00
2022-12-14T06:05:38.518Z,0.00
2022-12-14T06:06:38.480Z,0.00
2022-12-14T06:07:38.392Z,0.00
2022-12-14T06:09:47.599Z,0.00
2022-12-14T06:10:48.454Z,0.00
2022-12-14T06:11:48.419Z,0.00
2022-12-14T06:12:48.357Z,0.00
2022-12-14T06:13:48.323Z,0.00
2022-12-14T06:14:48.269Z,0.00
2022-12-14T06:15:48.195Z,0.00
2022-12-14T06:16:48.106Z,0.00
2022-12-14T06:17:48.023Z,0.00
2022-12-14T06:18:47.977Z,0.00
2022-12-14T06:19:50.398Z,0.00
2022-12-14T06:20:48.141Z,0.00
2022-12-14T06:21:47.757Z,0.00
2022-12-14T06:22:48.024Z,0.00
2022-12-14T06:23:47.657Z,0.00
2022-12-14T06:24:47.594Z,0.00
2022-12-14T06:25:47.502Z,0.00
2022-12-14T06:29:09.845Z,0.00
2022-12-14T06:30:06.783Z,0.00
2022-12-14T06:31:06.760Z,0.00
2022-12-14T06:32:06.652Z,0.00
2022-12-14T06:33:06.560Z,0.00
2022-12-14T06:34:06.537Z,0.00
2022-12-14T06:35:06.457Z,0.00
2022-12-14T06:36:06.379Z,0.00
2022-12-14T06:37:06.408Z,0.00
2022-12-14T06:38:06.276Z,0.00
2022-12-14T06:39:06.189Z,0.00
2022-12-14T06:40:06.098Z,0.00
2022-12-14T06:41:06.097Z,0.00
2022-12-14T06:42:06.027Z,0.00
2022-12-14T06:43:05.985Z,0.00
2022-12-14T06:44:05.925Z,0.00
2022-12-14T06:45:05.817Z,0.00
2022-12-14T06:46:09.849Z,0.00
2022-12-14T06:47:05.652Z,0.00
2022-12-14T06:48:05.661Z,0.00
2022-12-14T06:49:06.339Z,0.00
2022-12-14T06:50:05.453Z,0.00
2022-12-14T06:51:05.418Z,0.00
2022-12-14T06:52:27.200Z,0.00
2022-12-14T06:53:05.261Z,0.00
2022-12-14T06:54:05.199Z,0.00
2022-12-14T06:55:05.168Z,0.00
2022-12-14T06:56:05.037Z,0.00
2022-12-14T06:57:05.020Z,0.00
2022-12-14T06:58:04.990Z,0.00
2022-12-14T06:59:04.868Z,0.00
2022-12-14T07:00:04.803Z,0.00
2022-12-14T07:01:04.744Z,0.00
2022-12-14T07:02:04.725Z,0.00
2022-12-14T07:03:04.706Z,0.00
2022-12-14T07:04:04.591Z,0.00
2022-12-14T07:05:04.477Z,0.00
2022-12-14T07:06:04.384Z,0.00
2022-12-14T07:07:04.385Z,0.00
2022-12-14T07:08:04.279Z,0.00
2022-12-14T07:09:04.243Z,0.00
2022-12-14T07:11:13.359Z,0.00
2022-12-14T07:12:14.838Z,0.00
2022-12-14T07:13:14.178Z,0.00
2022-12-14T07:14:14.154Z,0.00
2022-12-14T07:15:14.129Z,0.00
2022-12-14T07:16:14.050Z,0.00
2022-12-14T07:17:13.940Z,0.00
2022-12-14T07:18:13.857Z,0.00
2022-12-14T07:19:13.843Z,0.00
2022-12-14T07:20:13.733Z,0.00
2022-12-14T07:21:13.666Z,0.00
2022-12-14T07:22:13.677Z,0.00
2022-12-14T07:23:13.544Z,0.00
2022-12-14T07:24:13.472Z,0.00
2022-12-14T07:25:13.426Z,0.00
2022-12-14T07:26:13.339Z,0.00
2022-12-14T07:27:13.260Z,0.00
2022-12-14T07:29:22.406Z,0.00
2022-12-14T07:30:23.416Z,0.00
2022-12-14T07:31:23.327Z,0.00
2022-12-14T07:32:23.192Z,0.00
2022-12-14T07:33:23.139Z,0.00
2022-12-14T07:34:23.074Z,0.00
2022-12-14T07:35:22.986Z,0.00
2022-12-14T07:36:22.951Z,0.00
2022-12-14T07:37:22.875Z,0.00
2022-12-14T07:38:22.819Z,0.00
2022-12-14T07:39:22.735Z,0.00
2022-12-14T07:40:22.686Z,0.00
2022-12-14T07:41:23.401Z,5.62
2022-12-14T07:42:22.539Z,5.62
2022-12-14T07:43:22.464Z,5.62
2022-12-14T07:44:22.405Z,5.62
2022-12-14T07:45:22.338Z,5.62
2022-12-14T07:46:22.382Z,5.62
2022-12-14T07:47:22.229Z,5.62
2022-12-14T07:48:22.815Z,5.62
2022-12-14T07:49:22.052Z,5.62
2022-12-14T07:50:22.052Z,5.62
2022-12-14T07:51:21.948Z,5.62
2022-12-14T07:52:21.948Z,5.62
2022-12-14T07:53:21.811Z,5.62
2022-12-14T07:54:21.784Z,5.62
2022-12-14T07:55:21.688Z,5.62
2022-12-14T07:56:21.592Z,5.62
2022-12-14T07:57:21.534Z,5.62
2022-12-14T07:58:21.480Z,5.62
2022-12-14T07:59:21.428Z,5.62
2022-12-14T08:00:21.370Z,11.25
2022-12-14T08:01:21.478Z,11.25
2022-12-14T08:02:21.320Z,11.25
2022-12-14T08:03:21.204Z,11.25
2022-12-14T08:04:42.088Z,11.25
2022-12-14T08:05:21.050Z,11.25
2022-12-14T08:06:20.956Z,11.25
2022-12-14T08:07:20.933Z,11.25
2022-12-14T08:08:20.810Z,11.25
2022-12-14T08:09:20.842Z,11.25
2022-12-14T08:10:20.768Z,11.25
2022-12-14T08:11:20.625Z,11.25
2022-12-14T08:12:20.550Z,16.88
2022-12-14T08:13:20.540Z,16.88
2022-12-14T08:14:20.509Z,16.88
2022-12-14T08:15:20.381Z,16.88
2022-12-14T08:16:20.383Z,16.88
2022-12-14T08:17:20.320Z,16.88
2022-12-14T08:18:20.196Z,16.88
2022-12-14T08:19:20.105Z,16.88
2022-12-14T08:20:20.056Z,16.88
2022-12-14T08:21:19.967Z,16.88
2022-12-14T08:22:20.327Z,22.50
2022-12-14T08:23:19.857Z,22.50
2022-12-14T08:24:19.849Z,22.50
2022-12-14T08:25:20.180Z,22.50
2022-12-14T08:26:20.377Z,22.50
2022-12-14T08:27:19.645Z,22.50
2022-12-14T08:28:19.587Z,22.50
2022-12-14T08:29:19.479Z,22.50
2022-12-14T08:30:19.394Z,22.50
2022-12-14T08:31:19.408Z,22.50
2022-12-14T08:32:20.486Z,28.12
2022-12-14T08:33:19.185Z,28.12
2022-12-14T08:34:20.102Z,28.12
2022-12-14T08:35:19.145Z,28.12
2022-12-14T08:36:19.883Z,28.12
2022-12-14T08:37:18.965Z,28.12
2022-12-14T08:38:18.898Z,28.12
2022-12-14T08:39:18.926Z,28.12
2022-12-14T08:40:18.828Z,28.12
2022-12-14T08:41:18.699Z,28.12
2022-12-14T08:42:18.641Z,28.12
2022-12-14T08:43:23.320Z,28.12
2022-12-14T08:44:18.554Z,28.12
2022-12-14T08:45:18.461Z,28.12
2022-12-14T08:46:18.381Z,28.12
2022-12-14T08:47:18.309Z,28.12
2022-12-14T08:48:18.242Z,28.12
2022-12-14T08:49:18.952Z,28.12
2022-12-14T08:50:18.253Z,28.12
2022-12-14T08:51:18.471Z,28.12
2022-12-14T08:52:18.035Z,28.12
2022-12-14T08:53:17.915Z,28.12
2022-12-14T08:54:18.891Z,28.12
2022-12-14T08:55:19.010Z,28.12
2022-12-14T08:56:17.751Z,33.75
2022-12-14T08:57:17.651Z,33.75
2022-12-14T08:58:18.162Z,33.75
2022-12-14T08:59:37.081Z,33.75
2022-12-14T09:00:17.656Z,28.12
2022-12-14T09:01:17.635Z,28.12
2022-12-14T09:02:17.471Z,28.12
2022-12-14T09:03:17.366Z,33.75
2022-12-14T09:04:18.001Z,33.75
2022-12-14T09:05:17.507Z,33.75
2022-12-14T09:06:17.868Z,33.75
2022-12-14T09:07:17.072Z,33.75
2022-12-14T09:08:16.987Z,33.75
2022-12-14T09:09:17.860Z,33.75
2022-12-14T09:10:17.703Z,39.38
2022-12-14T09:11:17.319Z,39.38
2022-12-14T09:12:16.870Z,39.38
2022-12-14T09:13:17.350Z,45.00
2022-12-14T09:14:16.616Z,45.00
2022-12-14T09:15:17.208Z,45.00
2022-12-14T09:16:16.485Z,50.62
2022-12-14T09:17:16.386Z,50.62
2022-12-14T09:18:16.324Z,50.62
2022-12-14T09:19:16.282Z,56.25
2022-12-14T09:20:16.190Z,61.88
2022-12-14T09:21:16.110Z,61.88
2022-12-14T09:22:16.144Z,67.50
2022-12-14T09:23:16.015Z,67.50
2022-12-14T09:24:15.935Z,67.50
2022-12-14T09:25:15.874Z,67.50
2022-12-14T09:26:15.775Z,67.50
2022-12-14T09:27:15.750Z,67.50
2022-12-14T09:28:15.676Z,67.50
2022-12-14T09:29:15.598Z,61.88
2022-12-14T09:30:15.497Z,61.88
2022-12-14T09:31:15.552Z,61.88
2022-12-14T09:32:15.399Z,56.25
2022-12-14T09:33:15.327Z,50.62
2022-12-14T09:34:36.301Z,50.62
2022-12-14T09:35:15.172Z,50.62
2022-12-14T09:36:15.166Z,50.62
2022-12-14T09:37:15.072Z,50.62
2022-12-14T09:38:15.057Z,56.25
2022-12-14T09:39:14.974Z,56.25
2022-12-14T09:40:14.899Z,56.25
2022-12-14T09:41:14.817Z,61.88
2022-12-14T09:42:14.738Z,61.88
2022-12-14T09:43:14.708Z,61.88
2022-12-14T09:44:18.448Z,61.88
2022-12-14T09:45:14.572Z,61.88
2022-12-14T09:46:14.547Z,67.50
2022-12-14T09:47:14.425Z,67.50
2022-12-14T09:48:14.537Z,67.50
2022-12-14T09:49:14.293Z,61.88
2022-12-14T09:50:14.318Z,61.88
2022-12-14T09:51:14.188Z,56.25
2022-12-14T09:52:14.135Z,56.25
2022-12-14T09:53:14.044Z,56.25
2022-12-14T09:54:14.004Z,56.25
2022-12-14T09:55:13.908Z,50.62
2022-12-14T09:56:13.813Z,50.62
2022-12-14T09:57:13.790Z,50.62
2022-12-14T09:58:13.763Z,50.62
2022-12-14T09:59:13.655Z,50.62
2022-12-14T10:00:13.606Z,50.62
2022-12-14T10:01:13.631Z,50.62
2022-12-14T10:02:30.507Z,50.62
2022-12-14T10:03:13.606Z,50.62
2022-12-14T10:04:13.437Z,50.62
2022-12-14T10:05:13.255Z,50.62
2022-12-14T10:06:13.237Z,50.62
2022-12-14T10:07:13.115Z,50.62
2022-12-14T10:08:13.123Z,50.62
2022-12-14T10:09:12.978Z,50.62
2022-12-14T10:10:33.932Z,50.62
2022-12-14T10:11:12.912Z,50.62
2022-12-14T10:12:12.786Z,50.62
2022-12-14T10:13:12.767Z,50.62
2022-12-14T10:14:12.773Z,45.00
2022-12-14T10:15:12.613Z,45.00
2022-12-14T10:16:13.191Z,45.00
2022-12-14T10:17:12.633Z,45.00
2022-12-14T10:18:33.890Z,45.00
2022-12-14T10:19:12.482Z,45.00
2022-12-14T10:20:12.322Z,50.62
2022-12-14T10:21:12.222Z,50.62
2022-12-14T10:22:12.181Z,50.62
2022-12-14T10:23:12.084Z,56.25
2022-12-14T10:24:15.326Z,56.25
2022-12-14T10:25:12.835Z,56.25
2022-12-14T10:26:14.836Z,56.25
2022-12-14T10:27:11.921Z,56.25
2022-12-14T10:28:33.661Z,56.25
2022-12-14T10:29:11.705Z,56.25
2022-12-14T10:30:11.669Z,56.25
2022-12-14T10:31:11.623Z,61.88
2022-12-14T10:32:13.390Z,61.88
2022-12-14T10:33:13.757Z,56.25
2022-12-14T10:34:15.775Z,56.25
2022-12-14T10:35:12.543Z,56.25
2022-12-14T10:36:13.554Z,50.62
2022-12-14T10:37:11.162Z,50.62
2022-12-14T10:38:11.126Z,50.62
2022-12-14T10:39:11.409Z,45.00
2022-12-14T10:40:16.379Z,45.00
2022-12-14T10:41:10.970Z,45.00
2022-12-14T10:42:10.844Z,45.00
2022-12-14T10:43:10.833Z,45.00
2022-12-14T10:44:10.737Z,45.00
2022-12-14T10:45:39.005Z,45.00
2022-12-14T10:46:14.310Z,50.62
2022-12-14T10:47:10.541Z,50.62
2022-12-14T10:48:10.505Z,50.62
2022-12-14T10:49:10.442Z,50.62
2022-12-14T10:50:10.378Z,50.62
2022-12-14T10:51:10.322Z,45.00
2022-12-14T10:52:10.293Z,45.00
2022-12-14T10:53:10.226Z,45.00
2022-12-14T10:54:10.091Z,45.00
2022-12-14T10:55:10.056Z,50.62
2022-12-14T10:56:10.060Z,50.62
2022-12-14T10:57:09.877Z,50.62
2022-12-14T10:58:09.874Z,56.25
2022-12-14T10:59:09.796Z,56.25
2022-12-14T11:00:10.401Z,56.25
2022-12-14T11:01:09.835Z,50.62
2022-12-14T11:02:09.845Z,50.62
2022-12-14T11:03:09.571Z,50.62
2022-12-14T11:04:30.401Z,50.62
2022-12-14T11:05:09.400Z,45.00
2022-12-14T11:06:09.371Z,45.00
2022-12-14T11:07:09.281Z,45.00
2022-12-14T11:08:09.184Z,45.00
2022-12-14T11:09:09.100Z,45.00
2022-12-14T11:10:09.122Z,45.00
2022-12-14T11:11:11.662Z,45.00
2022-12-14T11:12:09.063Z,50.62
2022-12-14T11:13:08.854Z,50.62
2022-12-14T11:14:08.829Z,50.62
2022-12-14T11:15:08.753Z,50.62
2022-12-14T11:16:08.814Z,50.62
2022-12-14T11:17:08.752Z,50.62
2022-12-14T11:18:08.659Z,50.62
2022-12-14T11:19:12.821Z,50.62
2022-12-14T11:24:50.599Z,56.25
2022-12-14T11:25:30.565Z,50.62
2022-12-14T11:26:30.499Z,50.62
2022-12-14T11:27:30.465Z,56.25
2022-12-14T11:28:36.606Z,56.25
2022-12-14T11:29:30.336Z,56.25
2022-12-14T11:30:30.331Z,56.25
2022-12-14T11:31:30.210Z,56.25
2022-12-14T11:32:30.111Z,56.25
2022-12-14T11:33:30.053Z,56.25
2022-12-14T11:34:29.986Z,56.25
2022-12-14T11:35:29.929Z,56.25
2022-12-14T11:36:29.913Z,61.88
2022-12-14T11:37:29.802Z,61.88
2022-12-14T11:38:30.174Z,61.88
2022-12-14T11:39:29.687Z,61.88
2022-12-14T11:40:29.592Z,61.88
2022-12-14T11:41:29.532Z,61.88
2022-12-14T11:42:29.516Z,61.88
2022-12-14T11:43:29.373Z,61.88
2022-12-14T11:44:29.350Z,61.88
2022-12-14T11:45:29.282Z,61.88
2022-12-14T11:46:29.238Z,61.88
2022-12-14T11:47:29.130Z,61.88
2022-12-14T11:48:29.594Z,61.88
2022-12-14T11:49:29.054Z,67.50
2022-12-14T11:50:28.949Z,67.50
2022-12-14T11:51:28.874Z,67.50
2022-12-14T11:52:28.882Z,67.50
2022-12-14T11:53:28.759Z,67.50
2022-12-14T11:54:28.698Z,67.50
2022-12-14T11:55:28.605Z,67.50
2022-12-14T11:56:28.592Z,67.50
2022-12-14T11:57:28.505Z,67.50
2022-12-14T11:58:28.773Z,67.50
2022-12-14T11:59:28.370Z,61.88
2022-12-14T12:00:49.280Z,61.88
2022-12-14T12:01:28.336Z,61.88
2022-12-14T12:02:28.177Z,56.25
2022-12-14T12:03:28.299Z,56.25
2022-12-14T12:04:28.018Z,56.25
2022-12-14T12:05:27.964Z,50.62
2022-12-14T12:06:27.969Z,50.62
2022-12-14T12:07:27.892Z,45.00
2022-12-14T12:08:28.236Z,45.00
2022-12-14T12:09:28.627Z,45.00
2022-12-14T12:10:27.633Z,45.00
2022-12-14T12:11:27.630Z,45.00
2022-12-14T12:12:27.614Z,45.00
2022-12-14T12:13:27.450Z,45.00
2022-12-14T12:14:27.426Z,50.62
2022-12-14T12:15:27.438Z,50.62
2022-12-14T12:16:27.302Z,56.25
2022-12-14T12:17:27.185Z,56.25
2022-12-14T12:18:27.692Z,61.88
2022-12-14T12:19:27.082Z,61.88
2022-12-14T12:20:27.025Z,61.88
2022-12-14T12:21:26.973Z,61.88
2022-12-14T12:22:26.883Z,61.88
2022-12-14T12:23:27.204Z,61.88
2022-12-14T12:24:26.842Z,61.88
2022-12-14T12:25:30.835Z,61.88
2022-12-14T12:26:26.687Z,61.88
2022-12-14T12:27:26.594Z,67.50
2022-12-14T12:28:26.828Z,61.88
2022-12-14T12:29:26.435Z,67.50
2022-12-14T12:30:26.414Z,67.50
2022-12-14T12:31:26.363Z,67.50
2022-12-14T12:32:26.219Z,67.50
2022-12-14T12:33:26.186Z,67.50
2022-12-14T12:34:26.115Z,84.38
2022-12-14T12:35:26.051Z,73.12
2022-12-14T12:36:26.050Z,73.12
2022-12-14T12:37:27.440Z,73.12
2022-12-14T12:38:26.133Z,73.12
2022-12-14T12:39:25.816Z,67.50
2022-12-14T12:40:25.710Z,73.12
2022-12-14T12:41:25.754Z,67.50
2022-12-14T12:42:25.615Z,67.50
2022-12-14T12:43:25.605Z,67.50
2022-12-14T12:44:25.466Z,67.50
2022-12-14T12:45:25.382Z,67.50
2022-12-14T12:46:25.348Z,67.50
2022-12-14T12:47:30.242Z,61.88
2022-12-14T12:48:25.231Z,61.88
2022-12-14T12:49:25.152Z,56.25
2022-12-14T12:50:25.058Z,56.25
2022-12-14T12:51:25.044Z,56.25
2022-12-14T12:52:24.957Z,56.25
2022-12-14T12:53:24.891Z,50.62
2022-12-14T12:54:45.824Z,50.62
2022-12-14T12:55:24.730Z,50.62
2022-12-14T12:56:24.738Z,50.62
2022-12-14T12:57:24.608Z,45.00
2022-12-14T12:58:24.560Z,45.00
2022-12-14T12:59:24.513Z,45.00
2022-12-14T13:00:24.454Z,45.00
2022-12-14T13:01:24.561Z,45.00
2022-12-14T13:02:24.560Z,45.00
2022-12-14T13:03:24.310Z,45.00
2022-12-14T13:04:24.174Z,50.62
2022-12-14T13:06:24.107Z,50.62
2022-12-14T13:07:24.018Z,50.62
2022-12-14T13:08:23.928Z,50.62
2022-12-14T13:09:23.832Z,50.62
2022-12-14T13:10:23.792Z,50.62
2022-12-14T13:11:26.476Z,50.62
2022-12-14T13:12:23.689Z,45.00
2022-12-14T13:13:23.600Z,45.00
2022-12-14T13:14:23.564Z,45.00
2022-12-14T13:15:23.453Z,45.00
2022-12-14T13:16:27.470Z,39.38
2022-12-14T13:17:23.314Z,39.38
2022-12-14T13:18:56.035Z,39.38
2022-12-14T13:19:49.192Z,39.38
2022-12-14T13:20:23.189Z,33.75
2022-12-14T13:21:23.149Z,33.75
2022-12-14T13:22:23.011Z,33.75
2022-12-14T13:23:46.374Z,33.75
2022-12-14T13:24:22.898Z,33.75
2022-12-14T13:25:22.822Z,28.12
2022-12-14T13:26:55.694Z,28.12
2022-12-14T13:27:22.702Z,28.12
2022-12-14T13:28:22.670Z,28.12
2022-12-14T13:29:22.593Z,28.12
2022-12-14T13:32:01.375Z,28.12